Aviation Digital Data Service (ADDS)

Output produced by METARs form (0857 UTC 19 June 2018)
found at http://www.aviationweather.gov/adds/metars/
 
K5A6 190835Z AUTO 00000KT 22/22 A3007 RMK AO2 T02210221 PWINO
K5A6 190815Z AUTO 00000KT 22/22 A3007 RMK AO2 T02210221 PWINO
K5A6 190755Z AUTO 00000KT 22/22 A3007 RMK AO2 T02210221 PWINO
K5A6 190735Z AUTO 00000KT 23/23 A3007 RMK AO2 T02250225 PWINO
K5A6 190715Z AUTO 00000KT 23/23 A3008 RMK AO2 T02250225 PWINO
K5A6 190655Z AUTO 00000KT 22/22 A3008 RMK AO2 T02230223 PWINO
K5A6 190635Z AUTO 00000KT 22/22 A3009 RMK AO2 T02220222 PWINO
K5A6 190610Z AUTO 00000KT 22/22 A3009 RMK AO2 T02200220 PWINO
K5A6 190555Z AUTO 00000KT 22/22 A3009 RMK AO2 T02200220 10281 20220 403210211 PWINO
K5A6 190535Z AUTO 00000KT 22/22 A3010 RMK AO2 T02200220 PWINO
K5A6 190515Z AUTO 00000KT 22/22 A3011 RMK AO2 T02200220 PWINO
K5A6 190455Z AUTO 00000KT 22/22 A3010 RMK AO2 T02200220 PWINO
K5A6 190435Z AUTO 00000KT 22/22 A3010 RMK AO2 T02210221 PWINO
K5A6 190415Z AUTO 00000KT 23/22 A3010 RMK AO2 T02260222 PWINO
K5A6 190355Z AUTO 00000KT 23/23 A3010 RMK AO2 T02260226 PWINO
K5A6 190335Z AUTO 00000KT 23/22 A3010 RMK AO2 T02290224 PWINO
K5A6 190310Z AUTO 00000KT CLR 24/21 A3009 RMK AO2 T02400213 PWINO
K5A6 190255Z AUTO 00000KT 24/22 A3009 RMK AO2 T02410216 PWINO
K5A6 190235Z AUTO 00000KT CLR 25/22 A3009 RMK AO2 T02460215 PWINO
K5A6 190215Z AUTO 00000KT CLR 25/21 A3009 RMK AO2 T02500211 PWINO
K5A6 190155Z AUTO 20004KT CLR 25/22 A3009 RMK AO2 T02530216 PWINO
K5A6 190135Z AUTO 21004KT CLR 26/23 A3009 RMK AO2 T02570225 PWINO
K5A6 190115Z AUTO 20004KT CLR 26/23 A3009 RMK AO2 T02550225 PWINO
K5A6 190055Z AUTO 00000KT CLR 26/23 A3009 RMK AO2 T02590231 PWINO
K5A6 190035Z AUTO 00000KT CLR 27/22 A3009 RMK AO2 T02700215 PWINO
K5A6 190015Z AUTO 00000KT SCT100 27/21 A3009 RMK AO2 T02730212 PWINO
K5A6 182355Z AUTO 00000KT SCT100 28/21 A3009 RMK AO2 T02820212 10321 20282 PWINO
K5A6 182335Z AUTO 28003KT CLR 29/21 A3009 RMK AO2 T02880212 PWINO
K5A6 182315Z AUTO 24005KT SCT065 29/21 A3008 RMK AO2 T02890209 PWINO
K5A6 182255Z AUTO 26006KT SCT055 SCT065 29/22 A3009 RMK AO2 T02920215 PWINO
K5A6 182235Z AUTO 26006KT SCT055 30/22 A3008 RMK AO2 T02950219 PWINO
K5A6 182215Z AUTO 00000KT CLR 29/23 A3008 RMK AO2 T02900225 PWINO
K5A6 182155Z AUTO 00000KT CLR 30/22 A3008 RMK AO2 T02970221 PWINO
K5A6 182130Z AUTO 19004KT SCT050 31/21 A3009 RMK AO2 LTG DSNT W T03110205 PWINO
K5A6 182115Z AUTO 20004KT SCT050 32/20 A3009 RMK AO2 LTG DSNT W T03170203 PWINO
K5A6 182055Z AUTO 17005KT CLR 32/21 A3009 RMK AO2 T03180208 PWINO
K5A6 182035Z AUTO 00000KT SCT050 SCT060 31/21 A3009 RMK AO2 T03110213 PWINO
K5A6 182015Z AUTO 19006KT SCT050 SCT060 31/21 A3010 RMK AO2 T03140207 PWINO
K5A6 181955Z AUTO 20003KT SCT048 SCT055 32/20 A3010 RMK AO2 T03210203 PWINO
K5A6 181935Z AUTO 19003KT CLR 31/22 A3011 RMK AO2 T03120216 PWINO
K5A6 181915Z AUTO 00000KT CLR 31/21 A3012 RMK AO2 T03130207 PWINO
K5A6 181855Z AUTO 00000KT CLR 31/20 A3012 RMK AO2 T03110199 PWINO
K5A6 181835Z AUTO 00000KT SCT110 31/20 A3012 RMK AO2 T03120201 PWINO
K5A6 181815Z AUTO 17004KT SCT110 31/21 A3014 RMK AO2 T03100209 PWINO
K5A6 181755Z AUTO 00000KT BKN110 30/20 A3014 RMK AO2 60001 T03040203 10310 20220 PWINO
K5A6 181735Z AUTO 18004KT OVC100 31/21 A3015 RMK AO2 T03070213 PWINO
K5A6 181715Z AUTO 16003KT BKN100 31/21 A3015 RMK AO2 T03070207 PWINO
K5A6 181655Z AUTO 18003KT SCT100 30/21 A3016 RMK AO2 T03030207 PWINO
K5A6 181635Z AUTO 16003KT CLR 30/21 A3016 RMK AO2 T03000210 PWINO
K5A6 181615Z AUTO 17003KT CLR 30/21 A3016 RMK AO2 T02970214 PWINO
K5A6 181555Z AUTO 14004KT CLR 29/21 A3015 RMK AO2 T02940213 PWINO
K5A6 181535Z AUTO 19004KT CLR 29/21 A3015 RMK AO2 T02910205 PWINO
K5A6 181515Z AUTO 15004KT CLR 29/21 A3015 RMK AO2 T02870209 PWINO
K5A6 181455Z AUTO 00000KT SCT110 28/21 A3016 RMK AO2 60001 T02800214 PWINO
K5A6 181435Z AUTO 17005KT BKN110 27/22 A3016 RMK AO2 T02720216 PWINO
K5A6 181415Z AUTO 00000KT BKN100 27/22 A3017 RMK AO2 T02710224 PWINO
K5A6 181355Z AUTO 00000KT CLR 26/22 A3016 RMK AO2 P0001 T02610224 PWINO
K5A6 181335Z AUTO 00000KT SCT095 25/22 A3016 RMK AO2 P0001 T02530223 PWINO
K5A6 181315Z AUTO 00000KT 25/23 A3016 RMK AO2 T02460226 PWINO
K5A6 181255Z AUTO 00000KT 24/23 A3015 RMK AO2 T02390229 PWINO
K5A6 181235Z AUTO 00000KT 23/23 A3015 RMK AO2 T02320227 PWINO
K5A6 181215Z AUTO 00000KT 23/23 A3014 RMK AO2 T02250225 PWINO
K5A6 181155Z AUTO 00000KT 22/22 A3014 RMK AO2 T02190219 10229 20211 PWINO
K5A6 181135Z AUTO 00000KT 21/21 A3013 RMK AO2 T02130213 PWINO
K5A6 181115Z AUTO 00000KT 21/21 A3013 RMK AO2 T02120212 PWINO
K5A6 181055Z AUTO 00000KT 21/21 A3012 RMK AO2 T02110211 PWINO
K5A6 181035Z AUTO 00000KT 21/21 A3012 RMK AO2 T02130213 PWINO
K5A6 181015Z AUTO 00000KT 21/21 A3011 RMK AO2 T02130213 PWINO
K5A6 180955Z AUTO 00000KT 22/22 A3011 RMK AO2 T02150215 PWINO
K5A6 180935Z AUTO 00000KT 22/22 A3011 RMK AO2 T02160216 PWINO
K5A6 180915Z AUTO 00000KT 22/22 A3010 RMK AO2 T02190219 PWINO
K5A6 180855Z AUTO 00000KT 22/22 A3010 RMK AO2 T02200220 PWINO
K5A6 180835Z AUTO 00000KT 22/22 A3009 RMK AO2 T02220222 PWINO
K5A6 180815Z AUTO 00000KT 22/22 A3009 RMK AO2 T02240224 PWINO
K5A6 180755Z AUTO 00000KT 22/22 A3009 RMK AO2 T02210221 PWINO
K5A6 180735Z AUTO 00000KT 23/23 A3009 RMK AO2 T02250225 PWINO
K5A6 180715Z AUTO 00000KT 22/22 A3009 RMK AO2 T02230223 PWINO
K5A6 180655Z AUTO 00000KT 22/22 A3009 RMK AO2 T02230223 PWINO
K5A6 180635Z AUTO 23003KT 23/23 A3008 RMK AO2 T02270227 PWINO
K5A6 180615Z AUTO 00000KT 23/23 A3009 RMK AO2 T02260226 PWINO
K5A6 180555Z AUTO 00000KT 23/23 A3009 RMK AO2 T02280228 10268 20228 403210210 PWINO
K5A6 180535Z AUTO 00000KT 23/23 A3010 RMK AO2 T02310231 PWINO
K5A6 180515Z AUTO 00000KT 24/24 A3011 RMK AO2 T02360236 PWINO
K5A6 180455Z AUTO 00000KT 24/24 A3012 RMK AO2 T02370237 PWINO
K5A6 180435Z AUTO 00000KT BKN080 BKN100 24/24 A3013 RMK AO2 T02400240 PWINO
K5A6 180415Z AUTO 02003KT BKN080 BKN095 24/24 A3013 RMK AO2 T02400240 PWINO
K5A6 180355Z AUTO 00000KT 24/24 A3013 RMK AO2 LTG DSNT NE T02360236 PWINO
K5A6 180335Z AUTO 00000KT 24/24 A3013 RMK AO2 LTG DSNT NE T02400240 PWINO
K5A6 180315Z AUTO 00000KT 25/25 A3012 RMK AO2 LTG DSNT NE T02460246 PWINO
K5A6 180255Z AUTO 00000KT 25/25 A3012 RMK AO2 LTG DSNT NE T02460246 PWINO
K5A6 180235Z AUTO 00000KT 25/25 A3012 RMK AO2 T02510251 PWINO
K5A6 180210Z AUTO 00000KT 25/25 A3010 RMK AO2 LTG DSNT NE T02500250 PWINO
K5A6 180155Z AUTO 00000KT 25/25 A3010 RMK AO2 LTG DSNT N THRU E T02500250 PWINO
K5A6 180135Z AUTO 00000KT 25/25 A3010 RMK AO2 LTG DSNT N T02530253 PWINO
K5A6 180115Z AUTO 00000KT 26/26 A3008 RMK AO2 LTG DSNT NE T02560256 PWINO
K5A6 180055Z AUTO 00000KT 26/26 A3007 RMK AO2 LTG DSNT NE T02600255 PWINO
K5A6 180035Z AUTO 00000KT 27/25 A3007 RMK AO2 LTG DSNT N AND NE T02670248 PWINO
K5A6 180010Z AUTO 00000KT 26/24 A3007 RMK AO2 T02620243 PWINO
K5A6 172355Z AUTO 19003KT SCT050 BKN075 27/24 A3006 RMK AO2 LTG DSNT N AND W T02670241 10321 20262 PWINO
K5A6 172335Z AUTO 15003KT SCT046 BKN049 OVC060 27/23 A3005 RMK AO2 T02700232 PWINO
K5A6 172315Z AUTO 18006G16KT BKN047 BKN070 30/22 A3004 RMK AO2 LTG DSNT W T02970222 PWINO
K5A6 172255Z AUTO 18004KT BKN047 BKN055 32/23 A3004 RMK AO2 T03170227 PWINO
K5A6 172235Z AUTO 00000KT SCT045 SCT055 32/22 A3004 RMK AO2 T03180221 PWINO
K5A6 172215Z AUTO 16004KT CLR 32/22 A3004 RMK AO2 T03180220 PWINO
K5A6 172155Z AUTO 16003KT CLR 32/22 A3004 RMK AO2 LTG DSNT SW T03200220 PWINO
K5A6 172135Z AUTO 16006KT CLR 32/21 A3005 RMK AO2 T03200213 PWINO
K5A6 172115Z AUTO 10003KT SCT048 SCT050 32/22 A3006 RMK AO2 LTG DSNT NE T03200220 PWINO
K5A6 172055Z AUTO 00000KT SCT048 BKN050 32/22 A3006 RMK AO2 T03200216 PWINO
K5A6 172035Z AUTO 19006KT SCT050 32/22 A3006 RMK AO2 T03210223 PWINO
K5A6 172015Z AUTO 17005KT CLR 32/22 A3007 RMK AO2 T03180216 PWINO
K5A6 171955Z AUTO 17006KT CLR 32/22 A3007 RMK AO2 T03160215 PWINO
K5A6 171935Z AUTO 15004KT SCT043 SCT065 SCT080 32/22 A3008 RMK AO2 T03160220 PWINO
K5A6 171915Z AUTO 14003KT SCT043 SCT050 BKN065 31/22 A3009 RMK AO2 T03070223 PWINO
K5A6 171855Z AUTO 17004KT SCT041 SCT060 32/23 A3009 RMK AO2 T03160226 PWINO
K5A6 171835Z AUTO 17006KT SCT039 SCT050 SCT065 31/22 A3009 RMK AO2 T03080223 PWINO
K5A6 171815Z AUTO 20004KT SCT038 SCT049 BKN055 31/23 A3009 RMK AO2 T03050230 PWINO
K5A6 171755Z AUTO 19005KT SCT038 SCT043 SCT050 31/23 A3010 RMK AO2 T03060229 10306 20224 PWINO
K5A6 171735Z AUTO 19003KT CLR 31/22 A3010 RMK AO2 T03050224 PWINO
K5A6 171715Z AUTO 16006KT SCT034 SCT044 SCT050 30/23 A3010 RMK AO2 T03030228 PWINO
K5A6 171655Z AUTO 20004KT SCT034 SCT046 BKN060 30/24 A3010 RMK AO2 T03000235 PWINO
K5A6 171635Z AUTO 00000KT SCT029 SCT038 BKN047 29/23 A3011 RMK AO2 T02880234 PWINO
K5A6 171615Z AUTO 17003KT SCT029 SCT042 SCT055 30/23 A3011 RMK AO2 T02980231 PWINO
K5A6 171555Z AUTO 00000KT CLR 30/23 A3011 RMK AO2 T02950227 PWINO
K5A6 171535Z AUTO 21003KT SCT022 SCT046 29/24 A3011 RMK AO2 T02850238 PWINO
K5A6 171515Z AUTO 20003KT SCT020 29/24 A3012 RMK AO2 T02850237 PWINO
K5A6 171455Z AUTO 00000KT CLR 28/24 A3012 RMK AO2 T02820241 PWINO
K5A6 171435Z AUTO 00000KT CLR 27/24 A3012 RMK AO2 T02740244 PWINO
K5A6 171415Z AUTO 15003KT 27/25 A3012 RMK AO2 T02670246 PWINO
K5A6 171355Z AUTO 00000KT 26/25 A3012 RMK AO2 T02600245 PWINO
K5A6 171335Z AUTO 21004KT 26/24 A3012 RMK AO2 T02580244 PWINO
K5A6 171315Z AUTO 00000KT 26/25 A3011 RMK AO2 T02550246 PWINO
K5A6 171255Z AUTO 00000KT 25/24 A3010 RMK AO2 T02470244 PWINO
K5A6 171235Z AUTO 00000KT 24/24 A3010 RMK AO2 T02370237 PWINO
K5A6 171215Z AUTO 00000KT 23/23 A3010 RMK AO2 LTG DSNT E T02320232 PWINO
K5A6 171155Z AUTO 00000KT 22/22 A3010 RMK AO2 70001 T02230223 10223 20210 PWINO
K5A6 171135Z AUTO 00000KT 22/22 A3009 RMK AO2 T02190219 PWINO
K5A6 171115Z AUTO 00000KT 22/22 A3008 RMK AO2 T02170217 PWINO
K5A6 171055Z AUTO 00000KT 21/21 A3008 RMK AO2 T02130213 PWINO
K5A6 171035Z AUTO 00000KT 21/21 A3008 RMK AO2 T02110211 PWINO
K5A6 171015Z AUTO 00000KT 21/21 A3007 RMK AO2 T02120212 PWINO
K5A6 170955Z AUTO 00000KT 21/21 A3005 RMK AO2 T02120212 PWINO
K5A6 170935Z AUTO 00000KT 21/21 A3005 RMK AO2 T02130213 PWINO
K5A6 170915Z AUTO 00000KT 21/21 A3004 RMK AO2 T02100210 PWINO
K5A6 170855Z AUTO 00000KT 22/22 A3003 RMK AO2 T02150215 PWINO
K5A6 170840Z AUTO 00000KT 22/22 A3003 RMK AO2 T02150215 PWINO
K5A6 170815Z AUTO 00000KT 22/22 A3003 RMK AO2 T02150215 PWINO
K5A6 170755Z AUTO 00000KT 21/21 A3002 RMK AO2 T02130213 PWINO
K5A6 170740Z AUTO 00000KT 22/22 A3002 RMK AO2 T02160216 PWINO
K5A6 170700Z AUTO 00000KT 22/22 A3003 RMK AO2 T02160216 PWINO
K5A6 170635Z AUTO 00000KT 22/22 A3003 RMK AO2 T02180218 PWINO
K5A6 170615Z AUTO 00000KT 22/22 A3003 RMK AO2 T02200220 PWINO
K5A6 170555Z AUTO 00000KT 22/22 A3004 RMK AO2 T02180218 10230 20216 403340205 PWINO
K5A6 170535Z AUTO 00000KT 22/22 A3004 RMK AO2 T02160216 PWINO
K5A6 170510Z AUTO 00000KT 22/22 A3004 RMK AO2 T02200220 PWINO
K5A6 170455Z AUTO 00000KT 22/22 A3004 RMK AO2 T02220221 PWINO
K5A6 170435Z AUTO 00000KT 22/22 A3004 RMK AO2 T02210221 PWINO
K5A6 170415Z AUTO 00000KT 22/22 A3004 RMK AO2 T02180218 PWINO
K5A6 170355Z AUTO 00000KT 22/22 A3003 RMK AO2 T02200220 PWINO
K5A6 170335Z AUTO 00000KT 22/22 A3003 RMK AO2 T02210221 PWINO
K5A6 170315Z AUTO 00000KT 22/22 A3003 RMK AO2 T02200220 PWINO
K5A6 170255Z AUTO 00000KT 22/22 A3003 RMK AO2 T02230223 PWINO
K5A6 170235Z AUTO 00000KT 23/23 A3001 RMK AO2 LTG DSNT E T02260226 PWINO
K5A6 170215Z AUTO 00000KT 23/22 A3001 RMK AO2 T02270220 PWINO
K5A6 170155Z AUTO 00000KT 23/22 A3000 RMK AO2 T02280216 PWINO
K5A6 170135Z AUTO 00000KT 23/22 A2999 RMK AO2 T02290220 PWINO
K5A6 170115Z AUTO 05006KT 23/23 A2999 RMK AO2 T02270227 PWINO
K5A6 170055Z AUTO 00000KT 23/23 A2998 RMK AO2 T02250225 PWINO
K5A6 170035Z AUTO 00000KT 22/22 A2999 RMK AO2 LTG DSNT NE AND W T02240223 PWINO
K5A6 170015Z AUTO 29003KT VCTS 23/22 A3000 RMK AO2 LTG DSNT SW THRU NE T02260215
K5A6 162355Z AUTO 25004KT TS 23/22 A2999 RMK AO2 LTG DSNT SW THRU NE 60001 T02270217 10334 20227
K5A6 162335Z AUTO 21006KT VCTS 24/22 A2999 RMK AO2 LTG DSNT ALQS T02350219
K5A6 162315Z AUTO 20009G15KT 25/23 A2999 RMK AO2 LTG DSNT ALQS T02530233 PWINO
K5A6 162255Z AUTO 17004KT VCTS 26/26 A2999 RMK AO2 LTG DSNT S AND NW P0001 T02600260
K5A6 162235Z AUTO 32005KT VCTS SCT032 BKN046 OVC050 26/23 A2997 RMK AO2 LTG DSNT ALQS T02610234
K5A6 162215Z AUTO 00000KT VCTS BKN046 OVC060 28/22 A2996 RMK AO2 LTG DSNT SE AND S T02820221
K5A6 162155Z AUTO 00000KT SCT050 SCT060 SCT070 33/22 A2996 RMK AO2 LTG DSNT E AND SE T03320224 PWINO
K5A6 162135Z AUTO 18005KT SCT049 33/23 A2997 RMK AO2 T03270226 PWINO
K5A6 162115Z AUTO 21003KT SCT049 SCT065 33/22 A2996 RMK AO2 LTG DSNT NE T03320224 PWINO
K5A6 162055Z AUTO 00000KT SCT065 33/22 A2996 RMK AO2 T03310220 PWINO
K5A6 162035Z AUTO 10003KT CLR 33/22 A2997 RMK AO2 T03300224 PWINO
K5A6 162015Z AUTO 00000KT SCT048 33/22 A2997 RMK AO2 T03280216 PWINO
K5A6 161955Z AUTO 00000KT SCT048 32/22 A2998 RMK AO2 T03220218 PWINO
K5A6 161935Z AUTO 00000KT CLR 33/22 A2998 RMK AO2 T03260218 PWINO
K5A6 161915Z AUTO 00000KT SCT065 32/22 A2999 RMK AO2 T03150217 PWINO
K5A6 161855Z AUTO 00000KT SCT065 SCT075 33/22 A2999 RMK AO2 T03270219 PWINO
K5A6 161835Z AUTO 00000KT CLR 32/22 A3000 RMK AO2 T03210222 PWINO
K5A6 161815Z AUTO 00000KT SCT043 SCT050 32/23 A3000 RMK AO2 T03150230 PWINO
K5A6 161755Z AUTO 00000KT OVC041 32/22 A3001 RMK AO2 T03180224 10322 20214 PWINO
K5A6 161735Z AUTO 00000KT SCT041 SCT055 SCT070 31/22 A3001 RMK AO2 T03140222 PWINO
K5A6 161715Z AUTO 00000KT SCT037 SCT043 BKN070 31/22 A3002 RMK AO2 T03050224 PWINO
K5A6 161655Z AUTO 00000KT SCT037 31/22 A3002 RMK AO2 T03110223 PWINO
K5A6 161635Z AUTO 00000KT SCT035 31/23 A3002 RMK AO2 T03070227 PWINO
K5A6 161615Z AUTO 07003KT CLR 30/23 A3002 RMK AO2 T03010228 PWINO
K5A6 161555Z AUTO 03003KT CLR 30/23 A3003 RMK AO2 T03040226 PWINO
K5A6 161535Z AUTO 00000KT CLR 30/23 A3003 RMK AO2 T03000234 PWINO
K5A6 161515Z AUTO 00000KT CLR 29/23 A3003 RMK AO2 T02930230 PWINO
K5A6 161455Z AUTO 00000KT CLR 29/23 A3003 RMK AO2 T02870232 PWINO
K5A6 161435Z AUTO 36003KT CLR 28/23 A3004 RMK AO2 T02820231 PWINO
K5A6 161415Z AUTO 00000KT CLR 28/24 A3004 RMK AO2 T02760236 PWINO
K5A6 161355Z AUTO 32003KT CLR 27/23 A3004 RMK AO2 T02710234 PWINO
K5A6 161335Z AUTO 28003KT CLR 26/23 A3004 RMK AO2 T02620232 PWINO
K5A6 161315Z AUTO 00000KT 26/24 A3003 RMK AO2 T02550235 PWINO
K5A6 161255Z AUTO 00000KT 24/23 A3003 RMK AO2 T02440232 PWINO
K5A6 161235Z AUTO 00000KT 23/23 A3002 RMK AO2 T02290229 PWINO
K5A6 161215Z AUTO 00000KT 22/22 A3002 RMK AO2 T02200220 PWINO
K5A6 161155Z AUTO 00000KT 21/21 A3001 RMK AO2 70001 T02130213 10220 20205 PWINO
K5A6 161135Z AUTO 00000KT 21/21 A3002 RMK AO2 T02100210 PWINO
K5A6 161115Z AUTO 00000KT 21/21 A3001 RMK AO2 T02050205 PWINO
K5A6 161055Z AUTO 00000KT 21/21 A3001 RMK AO2 T02050205 PWINO
K5A6 161035Z AUTO 00000KT 21/21 A3000 RMK AO2 T02050205 PWINO
K5A6 161015Z AUTO 00000KT 21/21 A3000 RMK AO2 T02050205 PWINO
K5A6 160955Z AUTO 00000KT 21/21 A3000 RMK AO2 T02060206 PWINO
K5A6 160935Z AUTO 00000KT 21/21 A3000 RMK AO2 T02070207 PWINO
K5A6 160915Z AUTO 00000KT 21/21 A2999 RMK AO2 T02070207 PWINO